Time;durP1;ratioP1;P1;durP2;ratioP2;P2;SDS_P1;SDS_P2;PMS_P1;PMS_P2;Temp;Humidity;BMP_temperature;BMP_pressure;BME280_temperature;BME280_humidity;BME280_pressure;Samples;Min_cycle;Max_cycle;Signal;HPM_P1;HPM_P2
2022/04/16 00:02:08;;;;;;;1.38;1.27;;;;;;;;;;4922932;29;20024;-73
2022/04/16 00:04:42;;;;;;;1.05;1.05;;;;;;;;;;4919598;29;20024;-73
2022/04/16 00:07:08;;;;;;;2.95;2.08;;;;;;;;;;4919594;29;20035;-73
2022/04/16 00:09:33;;;;;;;3.20;1.70;;;;;;;;;;4936380;29;20433;-73
2022/04/16 00:11:58;;;;;;;2.63;1.27;;;;;;;;;;4926275;29;20528;-73
2022/04/16 00:14:27;;;;;;;4.65;2.10;;;;;;;;;;4929802;29;20028;-73
2022/04/16 00:16:52;;;;;;;1.23;1.15;;;;;;;;;;4932746;29;20660;-74
2022/04/16 00:19:19;;;;;;;1.73;1.63;;;;;;;;;;4933865;29;20035;-73
2022/04/16 00:21:44;;;;;;;1.33;1.23;;;;;;;;;;4930053;29;20031;-73
2022/04/16 00:24:10;;;;;;;2.42;1.60;;;;;;;;;;4936083;29;20090;-73
2022/04/16 00:26:40;;;;;;;3.20;2.05;;;;;;;;;;4921355;29;20032;-74
2022/04/16 00:29:06;;;;;;;1.92;1.63;;;;;;;;;;4927686;29;20471;-73
2022/04/16 00:31:32;;;;;;;0.55;0.55;;;;;;;;;;4932523;29;20118;-73
2022/04/16 00:34:01;;;;;;;2.83;1.02;;;;;;;;;;4919824;29;20365;-73
2022/04/16 00:36:26;;;;;;;6.65;2.90;;;;;;;;;;4929317;29;20027;-73
2022/04/16 00:38:52;;;;;;;3.35;2.55;;;;;;;;;;4936211;29;20094;-73
2022/04/16 00:41:22;;;;;;;1.95;1.05;;;;;;;;;;4939264;29;20027;-73
2022/04/16 00:43:52;;;;;;;1.02;1.02;;;;;;;;;;4937839;29;20024;-72
2022/04/16 00:46:17;;;;;;;0.68;0.65;;;;;;;;;;4931544;29;20413;-73
2022/04/16 00:48:42;;;;;;;1.02;0.80;;;;;;;;;;4925468;29;20107;-73
2022/04/16 00:51:08;;;;;;;1.67;1.58;;;;;;;;;;4931180;29;20027;-73
2022/04/16 00:53:34;;;;;;;1.55;1.35;;;;;;;;;;4939576;29;20059;-73
2022/04/16 00:56:00;;;;;;;1.30;1.20;;;;;;;;;;4931150;29;20040;-73
2022/04/16 00:58:26;;;;;;;1.60;1.50;;;;;;;;;;4937896;29;20047;-73
2022/04/16 01:00:51;;;;;;;2.17;2.00;;;;;;;;;;4937974;29;20027;-74
2022/04/16 01:03:17;;;;;;;2.78;1.73;;;;;;;;;;4935649;29;20106;-73
2022/04/16 01:05:45;;;;;;;1.58;1.48;;;;;;;;;;4937579;29;20034;-73
2022/04/16 01:08:10;;;;;;;1.38;1.30;;;;;;;;;;4927666;29;20036;-73
2022/04/16 01:10:36;;;;;;;2.25;1.67;;;;;;;;;;4944886;28;20019;-73
2022/04/16 01:13:04;;;;;;;1.08;1.08;;;;;;;;;;4952417;29;20416;-73
2022/04/16 01:15:30;;;;;;;1.58;1.48;;;;;;;;;;4933501;29;20425;-73
2022/04/16 01:17:59;;;;;;;1.98;1.80;;;;;;;;;;4922933;29;20024;-73
2022/04/16 01:20:25;;;;;;;1.80;1.40;;;;;;;;;;4923402;29;20058;-74
2022/04/16 01:22:51;;;;;;;0.63;0.63;;;;;;;;;;4939299;29;20082;-73
2022/04/16 01:25:19;;;;;;;2.58;1.67;;;;;;;;;;4940099;29;20032;-73
2022/04/16 01:27:45;;;;;;;1.75;1.60;;;;;;;;;;4939160;29;20031;-73
2022/04/16 01:30:14;;;;;;;1.98;1.35;;;;;;;;;;4927708;29;20454;-73
2022/04/16 01:32:42;;;;;;;2.65;1.23;;;;;;;;;;4938149;29;20043;-73
2022/04/16 01:35:09;;;;;;;1.95;1.63;;;;;;;;;;4938500;29;20058;-73
2022/04/16 01:37:37;;;;;;;1.60;1.50;;;;;;;;;;4937649;29;20031;-73
2022/04/16 01:40:11;;;;;;;0.47;0.45;;;;;;;;;;4933865;29;20028;-73
2022/04/16 01:42:36;;;;;;;1.83;1.73;;;;;;;;;;4938665;29;20050;-73
2022/04/16 01:45:10;;;;;;;1.20;1.20;;;;;;;;;;4923198;29;20442;-74
2022/04/16 01:47:38;;;;;;;1.45;1.35;;;;;;;;;;4928464;29;20036;-73
2022/04/16 01:50:05;;;;;;;3.10;1.25;;;;;;;;;;4928493;29;20382;-73
2022/04/16 01:52:33;;;;;;;3.40;2.38;;;;;;;;;;4928900;29;20032;-74
2022/04/16 01:54:59;;;;;;;1.25;1.15;;;;;;;;;;4920451;29;20043;-73
2022/04/16 01:57:24;;;;;;;0.85;0.85;;;;;;;;;;4927196;29;20028;-73
2022/04/16 01:59:54;;;;;;;2.72;2.53;;;;;;;;;;4926396;29;20122;-74
2022/04/16 02:02:19;;;;;;;2.83;1.52;;;;;;;;;;4935869;29;20067;-73
2022/04/16 02:04:45;;;;;;;1.73;1.63;;;;;;;;;;4928345;29;20052;-73
2022/04/16 02:07:11;;;;;;;1.25;1.02;;;;;;;;;;4928226;29;20051;-74
2022/04/16 02:09:39;;;;;;;1.48;1.38;;;;;;;;;;4937974;29;20032;-73
2022/04/16 02:12:07;;;;;;;1.23;0.95;;;;;;;;;;4932194;29;20060;-73
2022/04/16 02:14:33;;;;;;;1.38;1.02;;;;;;;;;;4931469;29;20086;-74
2022/04/16 02:16:59;;;;;;;1.25;1.13;;;;;;;;;;4922881;29;20434;-74
2022/04/16 02:19:29;;;;;;;2.40;2.10;;;;;;;;;;4932868;29;20442;-73
2022/04/16 02:21:55;;;;;;;4.05;3.17;;;;;;;;;;4937106;29;20090;-73
2022/04/16 02:24:20;;;;;;;2.05;1.95;;;;;;;;;;4936947;29;20027;-75
2022/04/16 02:26:48;;;;;;;1.00;1.00;;;;;;;;;;4938529;29;20027;-73
2022/04/16 02:29:14;;;;;;;3.63;2.17;;;;;;;;;;4927330;29;20032;-73
2022/04/16 02:31:40;;;;;;;1.83;1.73;;;;;;;;;;4930940;29;20023;-74
2022/04/16 02:34:07;;;;;;;1.35;1.00;;;;;;;;;;4937028;29;20032;-73
2022/04/16 02:36:36;;;;;;;3.17;1.92;;;;;;;;;;4937268;29;20024;-73
2022/04/16 02:39:02;;;;;;;2.75;0.90;;;;;;;;;;4930381;29;20055;-74
2022/04/16 02:41:27;;;;;;;3.03;1.48;;;;;;;;;;4937045;29;20542;-73
2022/04/16 02:43:58;;;;;;;1.95;1.85;;;;;;;;;;4936753;29;20074;-72
2022/04/16 02:49:08;;;;;;;2.20;2.00;;;;;;;;;;4924747;29;20063;-74
2022/04/16 02:51:33;;;;;;;1.92;1.80;;;;;;;;;;4934416;29;20111;-74
2022/04/16 02:54:01;;;;;;;1.90;1.63;;;;;;;;;;4925264;29;20023;-73
2022/04/16 02:56:26;;;;;;;3.53;2.30;;;;;;;;;;4925551;29;20115;-74
2022/04/16 02:58:52;;;;;;;1.95;1.75;;;;;;;;;;4935344;29;20130;-73
2022/04/16 03:01:17;;;;;;;1.73;1.63;;;;;;;;;;4909094;29;20028;-73
2022/04/16 03:03:43;;;;;;;0.85;0.70;;;;;;;;;;4919747;29;20032;-73
2022/04/16 03:06:13;;;;;;;2.58;2.38;;;;;;;;;;4934184;29;20027;-73
2022/04/16 03:08:38;;;;;;;2.22;2.10;;;;;;;;;;4935145;29;20474;-73
2022/04/16 03:11:04;;;;;;;2.83;2.63;;;;;;;;;;4936791;29;20038;-73
2022/04/16 03:13:30;;;;;;;3.10;2.75;;;;;;;;;;4931709;29;20043;-73
2022/04/16 03:18:39;;;;;;;2.33;1.73;;;;;;;;;;4949091;29;20067;-73
2022/04/16 03:21:08;;;;;;;1.08;1.02;;;;;;;;;;4935703;29;20438;-73
2022/04/16 03:23:34;;;;;;;1.35;1.25;;;;;;;;;;4927762;29;20028;-73
2022/04/16 03:26:04;;;;;;;1.25;1.23;;;;;;;;;;4951784;28;20441;-73
2022/04/16 03:28:32;;;;;;;2.08;1.98;;;;;;;;;;4937018;29;20078;-74
2022/04/16 03:30:58;;;;;;;2.22;2.00;;;;;;;;;;4919832;29;20378;-73
2022/04/16 03:33:25;;;;;;;1.52;1.42;;;;;;;;;;4935776;29;20039;-74
2022/04/16 03:35:54;;;;;;;2.28;1.83;;;;;;;;;;4928211;29;20120;-73
2022/04/16 03:38:19;;;;;;;2.90;2.70;;;;;;;;;;4935970;29;20453;-74
2022/04/16 03:40:44;;;;;;;1.83;1.67;;;;;;;;;;4937049;29;20114;-74
2022/04/16 03:43:17;;;;;;;5.78;2.67;;;;;;;;;;4949845;29;20396;-73
2022/04/16 03:45:43;;;;;;;2.17;1.98;;;;;;;;;;4928612;29;20094;-73
2022/04/16 03:48:08;;;;;;;1.23;1.02;;;;;;;;;;4935476;29;20425;-74
2022/04/16 03:50:37;;;;;;;2.13;1.77;;;;;;;;;;4931257;29;20412;-74
2022/04/16 03:53:06;;;;;;;1.17;1.08;;;;;;;;;;4936179;29;20031;-74
2022/04/16 04:01:03;;;;;;;3.88;3.30;;;;;;;;;;4932628;29;20038;-73
2022/04/16 04:03:29;;;;;;;1.77;1.67;;;;;;;;;;4935985;29;20099;-73
2022/04/16 04:05:56;;;;;;;1.90;1.80;;;;;;;;;;4930245;29;20024;-73
2022/04/16 04:08:22;;;;;;;1.92;1.63;;;;;;;;;;4925565;29;20114;-74
2022/04/16 04:10:50;;;;;;;1.52;1.15;;;;;;;;;;4919014;29;20444;-73
2022/04/16 04:13:16;;;;;;;1.92;1.75;;;;;;;;;;4935773;29;20098;-73
2022/04/16 04:15:42;;;;;;;1.45;1.35;;;;;;;;;;4935274;29;20028;-73
2022/04/16 04:18:10;;;;;;;1.15;1.05;;;;;;;;;;4936182;29;20023;-73
2022/04/16 04:20:35;;;;;;;3.13;1.92;;;;;;;;;;4924518;29;20107;-73
2022/04/16 04:23:03;;;;;;;2.45;2.25;;;;;;;;;;4932419;29;20430;-74
2022/04/16 04:25:31;;;;;;;3.45;2.58;;;;;;;;;;4932341;29;20039;-74
2022/04/16 04:27:57;;;;;;;2.70;1.65;;;;;;;;;;4932193;29;20455;-73
2022/04/16 04:30:23;;;;;;;1.45;1.35;;;;;;;;;;4919390;29;20047;-74
2022/04/16 04:32:51;;;;;;;2.03;1.67;;;;;;;;;;4934762;29;20032;-74
2022/04/16 04:35:16;;;;;;;2.13;2.03;;;;;;;;;;4934760;29;20114;-74
2022/04/16 04:37:45;;;;;;;3.05;2.78;;;;;;;;;;4934424;29;20454;-73
2022/04/16 04:40:15;;;;;;;2.33;1.90;;;;;;;;;;4932185;29;20034;-74
2022/04/16 04:42:43;;;;;;;3.80;2.55;;;;;;;;;;4937188;29;20059;-74
2022/04/16 04:45:14;;;;;;;1.45;1.35;;;;;;;;;;4930113;29;20430;-74
2022/04/16 04:47:40;;;;;;;3.28;2.30;;;;;;;;;;4936114;29;20693;-74
2022/04/16 04:50:06;;;;;;;3.28;3.08;;;;;;;;;;4927305;29;20028;-74
2022/04/16 04:52:32;;;;;;;2.33;2.17;;;;;;;;;;4934461;29;20058;-74
2022/04/16 04:55:00;;;;;;;4.20;2.40;;;;;;;;;;4935310;29;20075;-74
2022/04/16 04:57:27;;;;;;;3.42;2.63;;;;;;;;;;4931834;29;20178;-73
2022/04/16 04:59:52;;;;;;;1.65;1.55;;;;;;;;;;4934240;29;20107;-74
2022/04/16 05:02:17;;;;;;;2.80;1.90;;;;;;;;;;4935555;29;20138;-73
2022/04/16 05:04:43;;;;;;;4.38;2.42;;;;;;;;;;4935937;29;20036;-73
2022/04/16 05:07:09;;;;;;;5.38;3.78;;;;;;;;;;4927204;29;20510;-73
2022/04/16 05:09:35;;;;;;;3.53;3.22;;;;;;;;;;4934850;28;20020;-73
2022/04/16 05:12:01;;;;;;;5.38;2.20;;;;;;;;;;4928797;29;20030;-74
2022/04/16 05:14:34;;;;;;;2.78;2.50;;;;;;;;;;4915511;29;20425;-74
2022/04/16 05:16:59;;;;;;;4.82;2.42;;;;;;;;;;4909096;29;20098;-74
2022/04/16 05:19:25;;;;;;;2.15;1.98;;;;;;;;;;4944308;29;20031;-74
2022/04/16 05:21:50;;;;;;;2.38;2.22;;;;;;;;;;4935963;29;20040;-74
2022/04/16 05:24:15;;;;;;;3.17;2.65;;;;;;;;;;4923516;29;20039;-73
2022/04/16 05:26:41;;;;;;;1.00;0.98;;;;;;;;;;4931055;29;20051;-73
2022/04/16 05:29:07;;;;;;;2.08;1.98;;;;;;;;;;4939628;29;20047;-74
2022/04/16 05:31:35;;;;;;;2.67;1.75;;;;;;;;;;4937589;29;20028;-74
2022/04/16 05:34:18;;;;;;;3.35;2.83;;;;;;;;;;4938226;29;20027;-74
2022/04/16 05:36:46;;;;;;;3.85;1.65;;;;;;;;;;4930744;29;20028;-73
2022/04/16 05:39:11;;;;;;;3.63;3.25;;;;;;;;;;4937374;29;20163;-74
2022/04/16 05:41:37;;;;;;;2.40;2.22;;;;;;;;;;4937647;29;20110;-74
2022/04/16 05:44:06;;;;;;;6.88;3.20;;;;;;;;;;4938470;29;20045;-73
2022/04/16 05:46:31;;;;;;;2.33;2.17;;;;;;;;;;4935576;29;20031;-74
2022/04/16 05:48:57;;;;;;;4.22;3.83;;;;;;;;;;4930923;29;20019;-73
2022/04/16 05:51:23;;;;;;;6.22;3.55;;;;;;;;;;4930927;29;20131;-74
2022/04/16 05:53:52;;;;;;;2.67;2.03;;;;;;;;;;4926294;29;20333;-73
2022/04/16 05:56:18;;;;;;;1.90;1.80;;;;;;;;;;4937773;29;20398;-74
2022/04/16 05:58:44;;;;;;;2.10;1.95;;;;;;;;;;4929728;29;20028;-74
2022/04/16 06:01:15;;;;;;;3.13;2.53;;;;;;;;;;4937545;29;20525;-74
2022/04/16 06:03:40;;;;;;;4.20;3.00;;;;;;;;;;4938556;29;20062;-75
2022/04/16 06:06:06;;;;;;;2.70;2.33;;;;;;;;;;4938194;29;20051;-74
2022/04/16 06:08:32;;;;;;;2.28;2.05;;;;;;;;;;4934427;29;20038;-73
2022/04/16 06:10:57;;;;;;;4.10;2.78;;;;;;;;;;4938424;29;20023;-74
2022/04/16 06:13:25;;;;;;;3.10;2.88;;;;;;;;;;4923683;29;20032;-73
2022/04/16 06:15:51;;;;;;;2.05;1.92;;;;;;;;;;4930767;29;20031;-74
2022/04/16 06:18:16;;;;;;;3.03;2.72;;;;;;;;;;4935547;29;20046;-74
2022/04/16 06:20:42;;;;;;;1.85;1.75;;;;;;;;;;4929444;29;20555;-73
2022/04/16 06:23:07;;;;;;;4.38;3.10;;;;;;;;;;4931661;29;20027;-73
2022/04/16 06:25:37;;;;;;;3.38;3.08;;;;;;;;;;4935233;29;20043;-73
2022/04/16 06:28:03;;;;;;;1.73;1.63;;;;;;;;;;4936751;29;20043;-74
2022/04/16 06:30:28;;;;;;;4.18;3.72;;;;;;;;;;4934716;29;20026;-74
2022/04/16 06:32:54;;;;;;;4.57;2.55;;;;;;;;;;4937606;29;20031;-74
2022/04/16 06:35:25;;;;;;;3.33;1.63;;;;;;;;;;4936777;29;20050;-74
2022/04/16 06:37:52;;;;;;;3.17;2.97;;;;;;;;;;4937343;29;20043;-74
2022/04/16 06:40:21;;;;;;;4.30;2.45;;;;;;;;;;4937213;29;20036;-74
2022/04/16 06:42:47;;;;;;;2.75;2.08;;;;;;;;;;4936952;29;20031;-74
2022/04/16 06:45:12;;;;;;;3.70;2.50;;;;;;;;;;4937944;29;20027;-74
2022/04/16 06:47:38;;;;;;;3.88;2.88;;;;;;;;;;4936831;29;20042;-75
2022/04/16 06:50:05;;;;;;;2.58;2.38;;;;;;;;;;4936052;29;20134;-74
2022/04/16 06:52:31;;;;;;;2.58;2.20;;;;;;;;;;4936795;29;20035;-74
2022/04/16 06:54:57;;;;;;;2.80;2.25;;;;;;;;;;4946873;29;20032;-73
2022/04/16 06:57:23;;;;;;;4.70;2.97;;;;;;;;;;4936985;29;20027;-73
2022/04/16 06:59:48;;;;;;;4.15;2.95;;;;;;;;;;4935899;29;20102;-75
2022/04/16 07:02:14;;;;;;;2.50;2.30;;;;;;;;;;4937915;29;20429;-73
2022/04/16 07:04:40;;;;;;;1.67;1.17;;;;;;;;;;4936510;29;20382;-75
2022/04/16 07:07:08;;;;;;;3.88;2.25;;;;;;;;;;4932089;29;20490;-73
2022/04/16 07:09:38;;;;;;;7.72;2.63;;;;;;;;;;4935010;29;20051;-75
2022/04/16 07:12:10;;;;;;;2.03;1.92;;;;;;;;;;4929193;29;20019;-73
2022/04/16 07:14:39;;;;;;;4.13;1.77;;;;;;;;;;4935812;29;20027;-74
2022/04/16 07:17:05;;;;;;;4.03;2.22;;;;;;;;;;4931051;29;20449;-73
2022/04/16 07:19:33;;;;;;;2.05;1.75;;;;;;;;;;4921081;29;20374;-74
2022/04/16 07:21:59;;;;;;;1.77;1.67;;;;;;;;;;4934362;29;20062;-74
2022/04/16 07:24:27;;;;;;;3.38;3.03;;;;;;;;;;4928237;29;20064;-73
2022/04/16 07:26:54;;;;;;;2.85;2.38;;;;;;;;;;4932236;29;20106;-73
2022/04/16 07:29:23;;;;;;;3.15;2.83;;;;;;;;;;4936910;29;20020;-74
2022/04/16 07:31:53;;;;;;;3.92;2.17;;;;;;;;;;4934908;29;20028;-73
2022/04/16 07:34:21;;;;;;;4.45;2.28;;;;;;;;;;4919731;29;20040;-74
2022/04/16 07:36:47;;;;;;;2.10;1.73;;;;;;;;;;4937131;29;20035;-74
2022/04/16 07:39:13;;;;;;;2.15;1.95;;;;;;;;;;4936697;29;20461;-73
2022/04/16 07:41:41;;;;;;;2.67;1.80;;;;;;;;;;4937038;29;20430;-74
2022/04/16 07:44:09;;;;;;;5.20;2.80;;;;;;;;;;4937048;29;20079;-74
2022/04/16 07:46:37;;;;;;;4.30;2.63;;;;;;;;;;4935822;29;20035;-74
2022/04/16 07:49:04;;;;;;;3.20;2.88;;;;;;;;;;4937120;29;20028;-74
2022/04/16 07:51:32;;;;;;;2.20;1.83;;;;;;;;;;4929918;29;20413;-74
2022/04/16 07:53:58;;;;;;;2.95;1.92;;;;;;;;;;4932944;29;20326;-73
2022/04/16 07:56:23;;;;;;;3.67;2.25;;;;;;;;;;4932487;29;20422;-73
2022/04/16 07:58:51;;;;;;;3.95;2.53;;;;;;;;;;4929803;29;20529;-74
2022/04/16 08:01:17;;;;;;;3.20;2.10;;;;;;;;;;4936254;29;20071;-74
2022/04/16 08:03:42;;;;;;;3.08;2.13;;;;;;;;;;4936607;29;20059;-75
2022/04/16 08:06:08;;;;;;;4.97;2.65;;;;;;;;;;4936530;29;20028;-74
2022/04/16 08:08:33;;;;;;;3.70;2.35;;;;;;;;;;4934675;29;20492;-75
2022/04/16 08:10:58;;;;;;;2.70;2.33;;;;;;;;;;4929920;29;20426;-74
2022/04/16 08:13:24;;;;;;;2.25;1.88;;;;;;;;;;4923418;29;20509;-74
2022/04/16 08:15:49;;;;;;;1.20;0.93;;;;;;;;;;4935857;29;20040;-75
2022/04/16 08:18:15;;;;;;;3.25;2.10;;;;;;;;;;4935307;29;20111;-75
2022/04/16 08:20:41;;;;;;;2.67;2.30;;;;;;;;;;4917452;29;20043;-75
2022/04/16 08:23:07;;;;;;;2.13;1.15;;;;;;;;;;4927768;29;20402;-74
2022/04/16 08:28:02;;;;;;;2.10;1.40;;;;;;;;;;4934210;29;20504;-73
2022/04/16 08:30:28;;;;;;;3.40;2.40;;;;;;;;;;4917118;29;20114;-73
2022/04/16 08:32:53;;;;;;;1.95;1.33;;;;;;;;;;4935924;29;20209;-73
2022/04/16 08:35:21;;;;;;;2.45;1.60;;;;;;;;;;4935980;29;20028;-74
2022/04/16 08:37:48;;;;;;;2.35;1.70;;;;;;;;;;4935976;29;20027;-74
2022/04/16 08:40:14;;;;;;;1.85;1.35;;;;;;;;;;4934991;29;20470;-74
2022/04/16 08:42:41;;;;;;;5.60;1.73;;;;;;;;;;4934195;29;20038;-75
2022/04/16 08:45:08;;;;;;;1.77;1.23;;;;;;;;;;4934137;29;20032;-75
2022/04/16 08:47:34;;;;;;;2.40;1.60;;;;;;;;;;4936109;29;20041;-74
2022/04/16 08:50:02;;;;;;;1.95;1.75;;;;;;;;;;4936448;29;20031;-73
2022/04/16 08:52:32;;;;;;;1.83;1.45;;;;;;;;;;4949892;28;20040;-74
2022/04/16 08:55:01;;;;;;;2.22;1.38;;;;;;;;;;4921982;29;20389;-74
2022/04/16 08:57:26;;;;;;;2.25;1.70;;;;;;;;;;4939744;29;20389;-75
2022/04/16 08:59:57;;;;;;;3.35;1.95;;;;;;;;;;4923983;29;20035;-74
2022/04/16 09:02:23;;;;;;;1.77;1.45;;;;;;;;;;4932170;29;20109;-74
2022/04/16 09:05:00;;;;;;;1.48;1.38;;;;;;;;;;4938854;29;20446;-73
2022/04/16 09:07:25;;;;;;;2.00;1.48;;;;;;;;;;4940400;29;20330;-74
2022/04/16 09:09:50;;;;;;;2.67;1.33;;;;;;;;;;4922710;29;20050;-73
2022/04/16 09:12:19;;;;;;;8.63;2.15;;;;;;;;;;4937921;29;20094;-75
2022/04/16 09:14:45;;;;;;;3.47;2.28;;;;;;;;;;4940115;29;20031;-75
2022/04/16 09:17:20;;;;;;;3.72;1.63;;;;;;;;;;4939117;29;20039;-74
2022/04/16 09:19:54;;;;;;;3.13;1.80;;;;;;;;;;4939298;29;20326;-74
2022/04/16 09:22:33;;;;;;;3.88;1.67;;;;;;;;;;4937154;29;20127;-74
2022/04/16 09:24:59;;;;;;;0.80;0.80;;;;;;;;;;4936662;29;20032;-74
2022/04/16 09:27:24;;;;;;;3.33;0.93;;;;;;;;;;4922973;29;20032;-74
2022/04/16 09:29:50;;;;;;;0.90;0.90;;;;;;;;;;4921457;29;20039;-76
2022/04/16 09:32:24;;;;;;;1.55;1.45;;;;;;;;;;4923863;29;20449;-74
2022/04/16 09:34:50;;;;;;;1.67;1.48;;;;;;;;;;4940131;29;20390;-84
2022/04/16 09:37:15;;;;;;;0.80;0.80;;;;;;;;;;4925653;29;20028;-81
2022/04/16 09:39:43;;;;;;;0.90;0.70;;;;;;;;;;4931306;29;20082;-81
2022/04/16 09:42:10;;;;;;;4.13;2.47;;;;;;;;;;4932973;29;20023;-83
2022/04/16 09:44:38;;;;;;;1.38;0.98;;;;;;;;;;4931162;29;20204;-84
2022/04/16 09:47:04;;;;;;;1.13;1.13;;;;;;;;;;4929434;29;20059;-84
2022/04/16 09:49:41;;;;;;;3.35;1.58;;;;;;;;;;4939036;29;20023;-85
2022/04/16 09:52:18;;;;;;;1.45;1.35;;;;;;;;;;4931540;29;20024;-79
2022/04/16 09:54:45;;;;;;;4.78;0.82;;;;;;;;;;4934290;29;20075;-82
2022/04/16 09:57:14;;;;;;;1.75;1.20;;;;;;;;;;4925903;29;20036;-80
2022/04/16 09:59:43;;;;;;;1.45;0.73;;;;;;;;;;4923990;29;20043;-81
2022/04/16 10:02:09;;;;;;;2.58;1.48;;;;;;;;;;4907655;29;20024;-81
2022/04/16 10:04:35;;;;;;;1.23;0.77;;;;;;;;;;4912437;29;20035;-82
2022/04/16 10:07:27;;;;;;;2.15;1.48;;;;;;;;;;4920328;29;20047;-82
2022/04/16 10:10:03;;;;;;;0.65;0.65;;;;;;;;;;4921427;29;20038;-81
2022/04/16 10:15:22;;;;;;;0.98;0.93;;;;;;;;;;4928163;29;20488;-82
2022/04/16 10:18:00;;;;;;;1.08;0.98;;;;;;;;;;4922334;29;20035;-83
2022/04/16 10:20:28;;;;;;;2.53;1.02;;;;;;;;;;4913607;29;20039;-83
2022/04/16 10:23:01;;;;;;;2.05;1.33;;;;;;;;;;4903155;29;20115;-79
2022/04/16 10:25:32;;;;;;;1.65;1.27;;;;;;;;;;4931268;29;20521;-79
2022/04/16 10:28:05;;;;;;;1.90;0.85;;;;;;;;;;4930622;29;20102;-86
2022/04/16 10:30:40;;;;;;;1.33;1.23;;;;;;;;;;4931551;29;20459;-87
2022/04/16 10:33:41;;;;;;;1.27;0.75;;;;;;;;;;4922835;29;20056;-83
2022/04/16 10:36:10;;;;;;;1.20;0.98;;;;;;;;;;4923688;29;20039;-88
2022/04/16 10:38:38;;;;;;;1.67;1.10;;;;;;;;;;4921861;29;20067;-86
2022/04/16 10:41:26;;;;;;;0.75;0.75;;;;;;;;;;4937956;29;20357;-89
2022/04/16 10:44:04;;;;;;;1.25;1.15;;;;;;;;;;4934147;29;20055;-88
2022/04/16 10:46:59;;;;;;;0.88;0.73;;;;;;;;;;4928597;29;20386;-89
2022/04/16 10:50:01;;;;;;;0.98;0.82;;;;;;;;;;4918234;29;20044;-88
2022/04/16 10:52:35;;;;;;;0.98;0.98;;;;;;;;;;4929233;29;20100;-84
2022/04/16 10:55:20;;;;;;;1.73;1.25;;;;;;;;;;4932052;29;20458;-87
2022/04/16 10:57:56;;;;;;;1.02;1.02;;;;;;;;;;4917511;29;20032;-85
2022/04/16 11:00:21;;;;;;;0.60;0.60;;;;;;;;;;4923892;29;20028;-83
2022/04/16 11:03:18;;;;;;;0.38;0.38;;;;;;;;;;4932580;29;20027;-82
2022/04/16 11:05:44;;;;;;;1.08;0.82;;;;;;;;;;4913546;29;20054;-80
2022/04/16 11:08:14;;;;;;;0.47;0.43;;;;;;;;;;4934645;29;20031;-78
2022/04/16 11:10:45;;;;;;;0.82;0.82;;;;;;;;;;4937326;29;20106;-78
2022/04/16 11:13:22;;;;;;;1.23;0.80;;;;;;;;;;4935698;29;20044;-78
2022/04/16 11:15:51;;;;;;;0.93;0.85;;;;;;;;;;4937607;29;20027;-78
2022/04/16 11:18:18;;;;;;;1.65;1.05;;;;;;;;;;4936707;29;20035;-79
2022/04/16 11:24:06;;;;;;;1.27;0.85;;;;;;;;;;4933646;29;20095;-79
2022/04/16 11:35:02;;;;;;;0.88;0.68;;;;;;;;;;4933458;29;20095;-79
2022/04/16 11:37:32;;;;;;;1.75;0.88;;;;;;;;;;4934416;29;20035;-79
2022/04/16 11:40:08;;;;;;;0.75;0.75;;;;;;;;;;4936668;29;20491;-82
2022/04/16 11:42:34;;;;;;;6.03;1.77;;;;;;;;;;4931822;29;20056;-79
2022/04/16 11:45:04;;;;;;;0.68;0.65;;;;;;;;;;4920254;29;20114;-80
2022/04/16 11:47:35;;;;;;;0.40;0.30;;;;;;;;;;4922258;29;20442;-79
2022/04/16 11:50:06;;;;;;;1.00;0.57;;;;;;;;;;4937585;29;20114;-79
2022/04/16 11:52:33;;;;;;;1.42;0.93;;;;;;;;;;4937545;29;20030;-82
2022/04/16 11:55:06;;;;;;;0.88;0.52;;;;;;;;;;4937150;29;20027;-78
2022/04/16 11:57:34;;;;;;;1.63;1.17;;;;;;;;;;4937538;29;20019;-79
2022/04/16 12:00:04;;;;;;;0.40;0.40;;;;;;;;;;4935941;29;20049;-80
2022/04/16 12:02:40;;;;;;;0.95;0.63;;;;;;;;;;4925489;29;20355;-80
2022/04/16 12:05:07;;;;;;;0.35;0.35;;;;;;;;;;4917869;29;20027;-80
2022/04/16 12:07:32;;;;;;;0.40;0.40;;;;;;;;;;4928351;29;20031;-80
2022/04/16 12:10:01;;;;;;;0.45;0.45;;;;;;;;;;4938039;29;20110;-81
2022/04/16 12:12:27;;;;;;;0.50;0.43;;;;;;;;;;4920964;29;20358;-79
2022/04/16 12:14:52;;;;;;;0.50;0.50;;;;;;;;;;4921810;29;20036;-77
2022/04/16 12:17:21;;;;;;;0.35;0.35;;;;;;;;;;4918223;29;20414;-79
2022/04/16 12:19:57;;;;;;;1.38;0.55;;;;;;;;;;4921899;29;20454;-76
2022/04/16 12:22:22;;;;;;;0.50;0.40;;;;;;;;;;4936914;29;20098;-80
2022/04/16 12:24:50;;;;;;;0.55;0.55;;;;;;;;;;4937249;29;20036;-80
2022/04/16 12:27:30;;;;;;;0.32;0.32;;;;;;;;;;4936998;29;20038;-81
2022/04/16 12:29:56;;;;;;;0.55;0.52;;;;;;;;;;4932834;29;20374;-80
2022/04/16 12:32:32;;;;;;;0.28;0.20;;;;;;;;;;4924289;29;20070;-79
2022/04/16 12:34:59;;;;;;;0.30;0.30;;;;;;;;;;4926829;29;20553;-81
2022/04/16 12:37:25;;;;;;;1.85;0.70;;;;;;;;;;4940938;29;20106;-82
2022/04/16 12:39:52;;;;;;;2.30;1.05;;;;;;;;;;4939571;29;20177;-82
2022/04/16 12:42:18;;;;;;;0.60;0.30;;;;;;;;;;4937436;29;20118;-80
2022/04/16 12:44:46;;;;;;;0.60;0.60;;;;;;;;;;4938170;29;20110;-84
2022/04/16 12:47:14;;;;;;;0.20;0.20;;;;;;;;;;4940272;29;20529;-81
2022/04/16 12:49:39;;;;;;;0.40;0.40;;;;;;;;;;4939566;29;20027;-82
2022/04/16 12:52:07;;;;;;;0.13;0.13;;;;;;;;;;4939486;29;20031;-82
2022/04/16 12:54:35;;;;;;;0.25;0.17;;;;;;;;;;4939636;29;20031;-82
2022/04/16 12:57:03;;;;;;;0.77;0.40;;;;;;;;;;4939694;29;20031;-79
2022/04/16 12:59:28;;;;;;;0.30;0.30;;;;;;;;;;4934632;29;20034;-75
2022/04/16 13:01:53;;;;;;;0.82;0.82;;;;;;;;;;4939665;29;20019;-81
2022/04/16 13:04:23;;;;;;;0.70;0.38;;;;;;;;;;4935210;29;20023;-79
2022/04/16 13:06:51;;;;;;;0.40;0.40;;;;;;;;;;4937792;29;20477;-78
2022/04/16 13:09:19;;;;;;;0.28;0.28;;;;;;;;;;4935772;29;20103;-81
2022/04/16 13:11:46;;;;;;;0.30;0.30;;;;;;;;;;4935188;29;20028;-80
2022/04/16 13:14:16;;;;;;;0.75;0.68;;;;;;;;;;4931716;29;20047;-79
2022/04/16 13:16:41;;;;;;;0.30;0.30;;;;;;;;;;4939047;29;20027;-83
2022/04/16 13:19:06;;;;;;;0.43;0.30;;;;;;;;;;4939719;29;20031;-80
2022/04/16 13:21:36;;;;;;;0.15;0.15;;;;;;;;;;4930981;29;20075;-78
2022/04/16 13:24:01;;;;;;;0.20;0.20;;;;;;;;;;4915206;29;20132;-81
2022/04/16 13:26:27;;;;;;;1.05;0.35;;;;;;;;;;4930292;29;20068;-80
2022/04/16 13:28:52;;;;;;;0.15;0.15;;;;;;;;;;4931646;29;20095;-81
2022/04/16 13:31:18;;;;;;;0.20;0.20;;;;;;;;;;4929345;29;20070;-80
2022/04/16 13:33:45;;;;;;;0.52;0.50;;;;;;;;;;4930424;29;20038;-80
2022/04/16 13:36:11;;;;;;;0.55;0.43;;;;;;;;;;4932321;29;20031;-79
2022/04/16 13:38:36;;;;;;;0.60;0.45;;;;;;;;;;4934287;29;20024;-79
2022/04/16 13:43:48;;;;;;;0.30;0.30;;;;;;;;;;4931217;29;20059;-79
2022/04/16 13:46:13;;;;;;;0.68;0.68;;;;;;;;;;4933812;29;20050;-80
2022/04/16 13:48:41;;;;;;;0.13;0.13;;;;;;;;;;4931187;29;20465;-82
2022/04/16 13:51:06;;;;;;;1.13;0.57;;;;;;;;;;4928339;29;20035;-81
2022/04/16 13:53:34;;;;;;;0.17;0.17;;;;;;;;;;4931451;29;20438;-79
2022/04/16 13:56:02;;;;;;;0.00;0.00;;;;;;;;;;4927516;29;20095;-81
2022/04/16 13:58:27;;;;;;;0.20;0.15;;;;;;;;;;4930061;29;20032;-81
2022/04/16 14:00:57;;;;;;;0.10;0.10;;;;;;;;;;4925513;29;20328;-79
2022/04/16 14:03:22;;;;;;;0.35;0.30;;;;;;;;;;4929957;29;20023;-80
2022/04/16 14:05:50;;;;;;;3.38;0.85;;;;;;;;;;4931442;29;20050;-81
2022/04/16 14:08:20;;;;;;;0.40;0.30;;;;;;;;;;4926939;29;20036;-82
2022/04/16 14:10:47;;;;;;;0.20;0.20;;;;;;;;;;4926058;29;20019;-81
2022/04/16 14:13:13;;;;;;;0.20;0.20;;;;;;;;;;4930956;29;20082;-78
2022/04/16 14:15:40;;;;;;;0.00;0.00;;;;;;;;;;4929733;29;20063;-79
2022/04/16 14:18:09;;;;;;;0.20;0.20;;;;;;;;;;4931430;29;20027;-84
2022/04/16 14:20:39;;;;;;;0.45;0.40;;;;;;;;;;4931023;29;20024;-79
2022/04/16 14:23:04;;;;;;;0.20;0.20;;;;;;;;;;4934557;29;20063;-79
2022/04/16 14:25:32;;;;;;;0.20;0.20;;;;;;;;;;4932821;29;20070;-79
2022/04/16 14:27:57;;;;;;;0.10;0.10;;;;;;;;;;4935428;29;20050;-80
2022/04/16 14:30:23;;;;;;;0.65;0.45;;;;;;;;;;4928668;29;20373;-79
2022/04/16 14:32:49;;;;;;;0.57;0.50;;;;;;;;;;4930975;29;20036;-76
2022/04/16 14:35:14;;;;;;;0.22;0.20;;;;;;;;;;4929486;29;20031;-76
2022/04/16 14:37:42;;;;;;;1.25;0.63;;;;;;;;;;4931677;29;20064;-77
2022/04/16 14:40:11;;;;;;;0.25;0.20;;;;;;;;;;4932651;29;20442;-77
2022/04/16 14:42:36;;;;;;;0.40;0.40;;;;;;;;;;4929040;29;20488;-75
2022/04/16 14:45:02;;;;;;;0.00;0.00;;;;;;;;;;4929682;29;20032;-77
2022/04/16 14:47:27;;;;;;;0.55;0.55;;;;;;;;;;4931678;29;20039;-78
2022/04/16 14:49:53;;;;;;;0.28;0.28;;;;;;;;;;4930312;29;20024;-78
2022/04/16 14:52:25;;;;;;;0.20;0.20;;;;;;;;;;4912004;29;20035;-77
2022/04/16 14:54:53;;;;;;;0.20;0.20;;;;;;;;;;4928243;29;20458;-81
2022/04/16 14:57:21;;;;;;;0.00;0.00;;;;;;;;;;4919552;29;20187;-79
2022/04/16 15:00:14;;;;;;;0.10;0.10;;;;;;;;;;4927138;29;20023;-81
2022/04/16 15:02:40;;;;;;;0.10;0.10;;;;;;;;;;4926484;29;20345;-80
2022/04/16 15:05:09;;;;;;;0.10;0.10;;;;;;;;;;4930329;29;20032;-81
2022/04/16 15:07:52;;;;;;;0.05;0.05;;;;;;;;;;4912911;29;20032;-80
2022/04/16 15:10:21;;;;;;;0.10;0.10;;;;;;;;;;4945590;29;20451;-82
2022/04/16 15:12:49;;;;;;;0.20;0.20;;;;;;;;;;4922200;29;20024;-79
2022/04/16 15:15:32;;;;;;;0.10;0.10;;;;;;;;;;4909658;29;20523;-79
2022/04/16 15:18:00;;;;;;;1.02;0.68;;;;;;;;;;4927477;29;20127;-78
2022/04/16 15:20:30;;;;;;;0.25;0.25;;;;;;;;;;4933455;29;20028;-79